sensor_id;sensor_type;location;lat;lon;timestamp;P1;durP1;ratioP1;P2;durP2;ratioP2
12990;SDS011;6560;57.692;11.958;2022-09-01T00:01:19;4.27;;;2.20;;
12990;SDS011;6560;57.692;11.958;2022-09-01T00:03:46;5.00;;;2.57;;
12990;SDS011;6560;57.692;11.958;2022-09-01T00:06:16;5.20;;;2.10;;
12990;SDS011;6560;57.692;11.958;2022-09-01T00:08:46;4.83;;;2.63;;
12990;SDS011;6560;57.692;11.958;2022-09-01T00:11:11;5.87;;;2.60;;
12990;SDS011;6560;57.692;11.958;2022-09-01T00:13:37;4.37;;;2.40;;
12990;SDS011;6560;57.692;11.958;2022-09-01T00:16:02;5.53;;;2.20;;
12990;SDS011;6560;57.692;11.958;2022-09-01T00:18:28;7.53;;;2.30;;
12990;SDS011;6560;57.692;11.958;2022-09-01T00:20:53;4.20;;;2.43;;
12990;SDS011;6560;57.692;11.958;2022-09-01T00:23:23;6.80;;;2.73;;
12990;SDS011;6560;57.692;11.958;2022-09-01T00:25:48;3.80;;;2.60;;
12990;SDS011;6560;57.692;11.958;2022-09-01T00:28:13;3.70;;;2.33;;
12990;SDS011;6560;57.692;11.958;2022-09-01T00:30:39;7.67;;;2.60;;
12990;SDS011;6560;57.692;11.958;2022-09-01T00:33:04;2.90;;;2.57;;
12990;SDS011;6560;57.692;11.958;2022-09-01T00:35:30;4.80;;;2.30;;
12990;SDS011;6560;57.692;11.958;2022-09-01T00:37:55;3.67;;;2.97;;
12990;SDS011;6560;57.692;11.958;2022-09-01T00:40:20;3.20;;;2.20;;
12990;SDS011;6560;57.692;11.958;2022-09-01T00:42:46;7.67;;;2.60;;
12990;SDS011;6560;57.692;11.958;2022-09-01T00:45:14;3.83;;;2.23;;
12990;SDS011;6560;57.692;11.958;2022-09-01T00:47:39;3.30;;;2.60;;
12990;SDS011;6560;57.692;11.958;2022-09-01T00:50:05;3.57;;;2.57;;
12990;SDS011;6560;57.692;11.958;2022-09-01T00:52:34;3.30;;;2.20;;
12990;SDS011;6560;57.692;11.958;2022-09-01T00:55:03;7.53;;;2.30;;
12990;SDS011;6560;57.692;11.958;2022-09-01T00:57:29;3.83;;;2.17;;
12990;SDS011;6560;57.692;11.958;2022-09-01T01:00:11;4.03;;;2.67;;
12990;SDS011;6560;57.692;11.958;2022-09-01T01:02:38;4.57;;;2.47;;
12990;SDS011;6560;57.692;11.958;2022-09-01T01:05:05;2.80;;;2.33;;
12990;SDS011;6560;57.692;11.958;2022-09-01T01:07:30;2.20;;;2.00;;
12990;SDS011;6560;57.692;11.958;2022-09-01T01:09:59;3.03;;;2.20;;
12990;SDS011;6560;57.692;11.958;2022-09-01T01:12:24;2.67;;;2.07;;
12990;SDS011;6560;57.692;11.958;2022-09-01T01:14:51;2.53;;;2.13;;
12990;SDS011;6560;57.692;11.958;2022-09-01T01:17:18;4.20;;;2.13;;
12990;SDS011;6560;57.692;11.958;2022-09-01T01:19:53;2.90;;;2.57;;
12990;SDS011;6560;57.692;11.958;2022-09-01T01:25:22;2.73;;;1.93;;
12990;SDS011;6560;57.692;11.958;2022-09-01T01:27:48;2.87;;;2.63;;
12990;SDS011;6560;57.692;11.958;2022-09-01T01:30:14;2.10;;;1.90;;
12990;SDS011;6560;57.692;11.958;2022-09-01T01:32:42;4.67;;;2.30;;
12990;SDS011;6560;57.692;11.958;2022-09-01T01:35:10;8.13;;;2.57;;
12990;SDS011;6560;57.692;11.958;2022-09-01T01:37:39;3.60;;;2.60;;
12990;SDS011;6560;57.692;11.958;2022-09-01T01:40:05;3.87;;;2.40;;
12990;SDS011;6560;57.692;11.958;2022-09-01T01:42:34;3.50;;;2.13;;
12990;SDS011;6560;57.692;11.958;2022-09-01T01:44:59;4.10;;;2.47;;
12990;SDS011;6560;57.692;11.958;2022-09-01T01:47:24;3.60;;;2.40;;
12990;SDS011;6560;57.692;11.958;2022-09-01T01:49:50;4.13;;;3.03;;
12990;SDS011;6560;57.692;11.958;2022-09-01T01:52:15;2.83;;;2.63;;
12990;SDS011;6560;57.692;11.958;2022-09-01T01:54:42;2.53;;;2.30;;
12990;SDS011;6560;57.692;11.958;2022-09-01T01:57:09;3.23;;;2.60;;
12990;SDS011;6560;57.692;11.958;2022-09-01T01:59:35;4.50;;;3.03;;
12990;SDS011;6560;57.692;11.958;2022-09-01T02:02:02;7.30;;;2.47;;
12990;SDS011;6560;57.692;11.958;2022-09-01T02:04:32;4.57;;;2.80;;
12990;SDS011;6560;57.692;11.958;2022-09-01T02:06:58;3.97;;;2.10;;
12990;SDS011;6560;57.692;11.958;2022-09-01T02:09:24;4.40;;;2.90;;
12990;SDS011;6560;57.692;11.958;2022-09-01T02:11:49;4.07;;;2.50;;
12990;SDS011;6560;57.692;11.958;2022-09-01T02:14:21;2.57;;;2.27;;
12990;SDS011;6560;57.692;11.958;2022-09-01T02:16:46;2.93;;;2.47;;
12990;SDS011;6560;57.692;11.958;2022-09-01T02:19:11;3.27;;;2.73;;
12990;SDS011;6560;57.692;11.958;2022-09-01T02:21:37;3.87;;;2.30;;
12990;SDS011;6560;57.692;11.958;2022-09-01T02:24:03;3.40;;;2.30;;
12990;SDS011;6560;57.692;11.958;2022-09-01T02:28:57;3.80;;;2.40;;
12990;SDS011;6560;57.692;11.958;2022-09-01T02:31:23;6.03;;;2.30;;
12990;SDS011;6560;57.692;11.958;2022-09-01T02:33:48;3.13;;;2.67;;
12990;SDS011;6560;57.692;11.958;2022-09-01T02:36:15;3.43;;;2.43;;
12990;SDS011;6560;57.692;11.958;2022-09-01T02:38:42;3.23;;;2.30;;
12990;SDS011;6560;57.692;11.958;2022-09-01T02:41:10;5.63;;;2.57;;
12990;SDS011;6560;57.692;11.958;2022-09-01T02:43:36;2.37;;;1.87;;
12990;SDS011;6560;57.692;11.958;2022-09-01T02:46:03;3.00;;;2.50;;
12990;SDS011;6560;57.692;11.958;2022-09-01T02:51:00;2.97;;;2.57;;
12990;SDS011;6560;57.692;11.958;2022-09-01T02:53:26;3.23;;;2.47;;
12990;SDS011;6560;57.692;11.958;2022-09-01T02:55:51;4.53;;;2.60;;
12990;SDS011;6560;57.692;11.958;2022-09-01T02:58:17;4.10;;;2.70;;
12990;SDS011;6560;57.692;11.958;2022-09-01T03:00:44;4.00;;;2.63;;
12990;SDS011;6560;57.692;11.958;2022-09-01T03:03:10;3.60;;;2.37;;
12990;SDS011;6560;57.692;11.958;2022-09-01T03:05:41;4.07;;;2.73;;
12990;SDS011;6560;57.692;11.958;2022-09-01T03:08:08;3.97;;;2.67;;
12990;SDS011;6560;57.692;11.958;2022-09-01T03:10:38;3.37;;;2.80;;
12990;SDS011;6560;57.692;11.958;2022-09-01T03:13:07;2.50;;;2.30;;
12990;SDS011;6560;57.692;11.958;2022-09-01T03:15:33;5.90;;;2.60;;
12990;SDS011;6560;57.692;11.958;2022-09-01T03:17:59;3.70;;;2.47;;
12990;SDS011;6560;57.692;11.958;2022-09-01T03:20:25;3.63;;;2.37;;
12990;SDS011;6560;57.692;11.958;2022-09-01T03:22:51;7.93;;;2.50;;
12990;SDS011;6560;57.692;11.958;2022-09-01T03:25:16;4.30;;;2.70;;
12990;SDS011;6560;57.692;11.958;2022-09-01T03:27:42;3.77;;;2.13;;
12990;SDS011;6560;57.692;11.958;2022-09-01T03:30:08;3.93;;;2.60;;
12990;SDS011;6560;57.692;11.958;2022-09-01T03:32:34;4.00;;;2.27;;
12990;SDS011;6560;57.692;11.958;2022-09-01T03:34:59;2.93;;;2.50;;
12990;SDS011;6560;57.692;11.958;2022-09-01T03:37:24;3.50;;;2.20;;
12990;SDS011;6560;57.692;11.958;2022-09-01T03:39:50;2.43;;;2.23;;
12990;SDS011;6560;57.692;11.958;2022-09-01T03:42:16;2.90;;;2.30;;
12990;SDS011;6560;57.692;11.958;2022-09-01T03:44:50;2.67;;;2.37;;
12990;SDS011;6560;57.692;11.958;2022-09-01T03:47:15;4.57;;;2.63;;
12990;SDS011;6560;57.692;11.958;2022-09-01T03:49:41;2.93;;;2.63;;
12990;SDS011;6560;57.692;11.958;2022-09-01T03:52:08;2.90;;;2.43;;
12990;SDS011;6560;57.692;11.958;2022-09-01T03:54:34;2.67;;;2.33;;
12990;SDS011;6560;57.692;11.958;2022-09-01T03:56:59;3.00;;;2.63;;
12990;SDS011;6560;57.692;11.958;2022-09-01T03:59:25;4.20;;;2.60;;
12990;SDS011;6560;57.692;11.958;2022-09-01T04:01:52;4.50;;;2.43;;
12990;SDS011;6560;57.692;11.958;2022-09-01T04:04:17;3.17;;;2.63;;
12990;SDS011;6560;57.692;11.958;2022-09-01T04:06:43;2.73;;;2.43;;
12990;SDS011;6560;57.692;11.958;2022-09-01T04:09:09;7.73;;;2.50;;
12990;SDS011;6560;57.692;11.958;2022-09-01T04:11:36;2.80;;;2.30;;
12990;SDS011;6560;57.692;11.958;2022-09-01T04:14:03;2.90;;;2.27;;
12990;SDS011;6560;57.692;11.958;2022-09-01T04:16:29;3.73;;;2.60;;
12990;SDS011;6560;57.692;11.958;2022-09-01T04:19:14;3.00;;;2.60;;
12990;SDS011;6560;57.692;11.958;2022-09-01T04:21:44;3.97;;;2.30;;
12990;SDS011;6560;57.692;11.958;2022-09-01T04:24:09;3.07;;;2.30;;
12990;SDS011;6560;57.692;11.958;2022-09-01T04:26:37;3.30;;;2.10;;
12990;SDS011;6560;57.692;11.958;2022-09-01T04:29:02;4.80;;;2.17;;
12990;SDS011;6560;57.692;11.958;2022-09-01T04:31:28;3.93;;;2.30;;
12990;SDS011;6560;57.692;11.958;2022-09-01T04:33:55;2.60;;;2.17;;
12990;SDS011;6560;57.692;11.958;2022-09-01T04:36:25;3.33;;;2.50;;
12990;SDS011;6560;57.692;11.958;2022-09-01T04:38:52;3.33;;;2.60;;
12990;SDS011;6560;57.692;11.958;2022-09-01T04:41:19;4.37;;;2.60;;
12990;SDS011;6560;57.692;11.958;2022-09-01T04:43:45;3.47;;;2.37;;
12990;SDS011;6560;57.692;11.958;2022-09-01T04:46:11;3.90;;;2.87;;
12990;SDS011;6560;57.692;11.958;2022-09-01T04:48:38;11.27;;;3.10;;
12990;SDS011;6560;57.692;11.958;2022-09-01T04:51:06;3.30;;;2.60;;
12990;SDS011;6560;57.692;11.958;2022-09-01T04:53:34;3.63;;;2.33;;
12990;SDS011;6560;57.692;11.958;2022-09-01T04:56:02;3.47;;;2.60;;
12990;SDS011;6560;57.692;11.958;2022-09-01T04:58:28;2.97;;;2.67;;
12990;SDS011;6560;57.692;11.958;2022-09-01T05:00:54;3.50;;;2.67;;
12990;SDS011;6560;57.692;11.958;2022-09-01T05:03:20;4.40;;;3.20;;
12990;SDS011;6560;57.692;11.958;2022-09-01T05:05:48;3.63;;;2.50;;
12990;SDS011;6560;57.692;11.958;2022-09-01T05:08:15;3.27;;;2.57;;
12990;SDS011;6560;57.692;11.958;2022-09-01T05:10:42;4.73;;;2.50;;
12990;SDS011;6560;57.692;11.958;2022-09-01T05:13:09;2.80;;;2.30;;
12990;SDS011;6560;57.692;11.958;2022-09-01T05:15:36;5.63;;;2.87;;
12990;SDS011;6560;57.692;11.958;2022-09-01T05:18:02;5.50;;;2.60;;
12990;SDS011;6560;57.692;11.958;2022-09-01T05:20:37;3.40;;;2.67;;
12990;SDS011;6560;57.692;11.958;2022-09-01T05:23:04;4.43;;;2.73;;
12990;SDS011;6560;57.692;11.958;2022-09-01T05:25:30;7.23;;;2.80;;
12990;SDS011;6560;57.692;11.958;2022-09-01T05:27:56;3.13;;;2.60;;
12990;SDS011;6560;57.692;11.958;2022-09-01T05:30:21;7.33;;;3.03;;
12990;SDS011;6560;57.692;11.958;2022-09-01T05:32:48;5.13;;;2.70;;
12990;SDS011;6560;57.692;11.958;2022-09-01T05:35:14;6.37;;;3.10;;
12990;SDS011;6560;57.692;11.958;2022-09-01T05:37:40;3.83;;;2.90;;
12990;SDS011;6560;57.692;11.958;2022-09-01T05:40:07;5.70;;;3.17;;
12990;SDS011;6560;57.692;11.958;2022-09-01T05:42:33;4.53;;;2.87;;
12990;SDS011;6560;57.692;11.958;2022-09-01T05:44:59;6.73;;;2.77;;
12990;SDS011;6560;57.692;11.958;2022-09-01T05:47:26;4.93;;;2.90;;
12990;SDS011;6560;57.692;11.958;2022-09-01T05:49:52;10.20;;;3.80;;
12990;SDS011;6560;57.692;11.958;2022-09-01T05:52:22;8.53;;;3.27;;
12990;SDS011;6560;57.692;11.958;2022-09-01T05:54:49;5.23;;;2.63;;
12990;SDS011;6560;57.692;11.958;2022-09-01T05:57:16;6.00;;;3.00;;
12990;SDS011;6560;57.692;11.958;2022-09-01T05:59:41;7.37;;;2.67;;
12990;SDS011;6560;57.692;11.958;2022-09-01T06:02:07;6.57;;;3.13;;
12990;SDS011;6560;57.692;11.958;2022-09-01T06:04:33;6.93;;;2.57;;
12990;SDS011;6560;57.692;11.958;2022-09-01T06:06:59;5.23;;;3.23;;
12990;SDS011;6560;57.692;11.958;2022-09-01T06:09:24;6.43;;;3.33;;
12990;SDS011;6560;57.692;11.958;2022-09-01T06:11:50;5.07;;;2.17;;
12990;SDS011;6560;57.692;11.958;2022-09-01T06:14:17;10.03;;;2.83;;
12990;SDS011;6560;57.692;11.958;2022-09-01T06:16:42;4.93;;;2.43;;
12990;SDS011;6560;57.692;11.958;2022-09-01T06:19:08;4.00;;;2.53;;
12990;SDS011;6560;57.692;11.958;2022-09-01T06:21:34;5.05;;;2.47;;
12990;SDS011;6560;57.692;11.958;2022-09-01T06:24:00;4.53;;;2.20;;
12990;SDS011;6560;57.692;11.958;2022-09-01T06:26:28;7.22;;;2.20;;
12990;SDS011;6560;57.692;11.958;2022-09-01T06:28:55;6.47;;;2.70;;
12990;SDS011;6560;57.692;11.958;2022-09-01T06:31:22;4.30;;;2.22;;
12990;SDS011;6560;57.692;11.958;2022-09-01T06:33:51;4.43;;;2.13;;
12990;SDS011;6560;57.692;11.958;2022-09-01T06:36:18;2.30;;;1.80;;
12990;SDS011;6560;57.692;11.958;2022-09-01T06:38:45;4.38;;;1.67;;
12990;SDS011;6560;57.692;11.958;2022-09-01T06:41:11;2.95;;;1.50;;
12990;SDS011;6560;57.692;11.958;2022-09-01T06:43:37;2.50;;;1.60;;
12990;SDS011;6560;57.692;11.958;2022-09-01T06:46:05;3.13;;;1.40;;
12990;SDS011;6560;57.692;11.958;2022-09-01T06:48:31;8.45;;;1.77;;
12990;SDS011;6560;57.692;11.958;2022-09-01T06:51:01;4.28;;;1.80;;
12990;SDS011;6560;57.692;11.958;2022-09-01T06:53:29;5.55;;;2.15;;
12990;SDS011;6560;57.692;11.958;2022-09-01T06:55:55;3.63;;;1.58;;
12990;SDS011;6560;57.692;11.958;2022-09-01T06:58:21;4.15;;;1.80;;
12990;SDS011;6560;57.692;11.958;2022-09-01T07:00:46;5.60;;;1.75;;
12990;SDS011;6560;57.692;11.958;2022-09-01T07:03:13;3.00;;;1.67;;
12990;SDS011;6560;57.692;11.958;2022-09-01T07:05:39;2.30;;;1.38;;
12990;SDS011;6560;57.692;11.958;2022-09-01T07:08:05;3.80;;;1.77;;
12990;SDS011;6560;57.692;11.958;2022-09-01T07:10:37;4.90;;;1.40;;
12990;SDS011;6560;57.692;11.958;2022-09-01T07:13:03;4.07;;;1.27;;
12990;SDS011;6560;57.692;11.958;2022-09-01T07:15:30;2.67;;;1.38;;
12990;SDS011;6560;57.692;11.958;2022-09-01T07:17:56;4.45;;;1.40;;
12990;SDS011;6560;57.692;11.958;2022-09-01T07:20:24;2.92;;;1.30;;
12990;SDS011;6560;57.692;11.958;2022-09-01T07:22:50;1.30;;;1.17;;
12990;SDS011;6560;57.692;11.958;2022-09-01T07:25:16;2.42;;;1.40;;
12990;SDS011;6560;57.692;11.958;2022-09-01T07:27:42;2.15;;;1.17;;
12990;SDS011;6560;57.692;11.958;2022-09-01T07:30:17;3.20;;;1.40;;
12990;SDS011;6560;57.692;11.958;2022-09-01T07:32:43;3.72;;;1.25;;
12990;SDS011;6560;57.692;11.958;2022-09-01T07:35:09;1.27;;;0.63;;
12990;SDS011;6560;57.692;11.958;2022-09-01T07:37:34;2.20;;;1.05;;
12990;SDS011;6560;57.692;11.958;2022-09-01T07:40:04;1.67;;;0.93;;
12990;SDS011;6560;57.692;11.958;2022-09-01T07:42:30;2.42;;;0.82;;
12990;SDS011;6560;57.692;11.958;2022-09-01T07:44:55;1.23;;;0.60;;
12990;SDS011;6560;57.692;11.958;2022-09-01T07:47:22;1.33;;;0.63;;
12990;SDS011;6560;57.692;11.958;2022-09-01T07:49:47;1.17;;;0.90;;
12990;SDS011;6560;57.692;11.958;2022-09-01T07:52:13;2.08;;;0.60;;
12990;SDS011;6560;57.692;11.958;2022-09-01T07:54:38;2.22;;;0.85;;
12990;SDS011;6560;57.692;11.958;2022-09-01T07:57:04;1.75;;;0.88;;
12990;SDS011;6560;57.692;11.958;2022-09-01T07:59:30;1.40;;;0.70;;
12990;SDS011;6560;57.692;11.958;2022-09-01T08:01:57;2.25;;;0.98;;
12990;SDS011;6560;57.692;11.958;2022-09-01T08:04:22;0.60;;;0.60;;
12990;SDS011;6560;57.692;11.958;2022-09-01T08:06:48;3.95;;;0.60;;
12990;SDS011;6560;57.692;11.958;2022-09-01T08:09:13;2.40;;;0.95;;
12990;SDS011;6560;57.692;11.958;2022-09-01T08:11:38;0.88;;;0.70;;
12990;SDS011;6560;57.692;11.958;2022-09-01T08:14:05;1.42;;;0.80;;
12990;SDS011;6560;57.692;11.958;2022-09-01T08:16:31;2.83;;;0.82;;
12990;SDS011;6560;57.692;11.958;2022-09-01T08:18:56;1.48;;;0.80;;
12990;SDS011;6560;57.692;11.958;2022-09-01T08:21:23;1.27;;;1.00;;
12990;SDS011;6560;57.692;11.958;2022-09-01T08:23:49;1.25;;;0.88;;
12990;SDS011;6560;57.692;11.958;2022-09-01T08:26:16;3.63;;;0.90;;
12990;SDS011;6560;57.692;11.958;2022-09-01T08:28:41;1.88;;;0.70;;
12990;SDS011;6560;57.692;11.958;2022-09-01T08:31:10;0.68;;;0.65;;
12990;SDS011;6560;57.692;11.958;2022-09-01T08:33:37;1.45;;;0.65;;
12990;SDS011;6560;57.692;11.958;2022-09-01T08:36:02;1.63;;;0.80;;
12990;SDS011;6560;57.692;11.958;2022-09-01T08:38:28;3.60;;;0.60;;
12990;SDS011;6560;57.692;11.958;2022-09-01T08:40:54;1.42;;;0.70;;
12990;SDS011;6560;57.692;11.958;2022-09-01T08:43:26;1.42;;;0.70;;
12990;SDS011;6560;57.692;11.958;2022-09-01T08:45:56;0.98;;;0.57;;
12990;SDS011;6560;57.692;11.958;2022-09-01T08:48:41;1.02;;;0.65;;
12990;SDS011;6560;57.692;11.958;2022-09-01T08:53:57;1.63;;;0.43;;
12990;SDS011;6560;57.692;11.958;2022-09-01T08:56:23;2.03;;;0.95;;
12990;SDS011;6560;57.692;11.958;2022-09-01T08:58:48;1.02;;;0.93;;
12990;SDS011;6560;57.692;11.958;2022-09-01T09:01:19;0.82;;;0.55;;
12990;SDS011;6560;57.692;11.958;2022-09-01T09:06:57;0.47;;;0.40;;
12990;SDS011;6560;57.692;11.958;2022-09-01T09:09:39;1.08;;;0.88;;
12990;SDS011;6560;57.692;11.958;2022-09-01T09:12:10;0.50;;;0.50;;
12990;SDS011;6560;57.692;11.958;2022-09-01T09:17:42;0.43;;;0.40;;
12990;SDS011;6560;57.692;11.958;2022-09-01T09:20:10;2.28;;;0.73;;
12990;SDS011;6560;57.692;11.958;2022-09-01T09:22:35;3.25;;;0.50;;
12990;SDS011;6560;57.692;11.958;2022-09-01T09:25:03;0.98;;;0.50;;
12990;SDS011;6560;57.692;11.958;2022-09-01T09:27:30;1.10;;;0.70;;
12990;SDS011;6560;57.692;11.958;2022-09-01T09:29:57;1.88;;;0.40;;
12990;SDS011;6560;57.692;11.958;2022-09-01T09:32:23;0.95;;;0.80;;
12990;SDS011;6560;57.692;11.958;2022-09-01T09:34:49;0.80;;;0.55;;
12990;SDS011;6560;57.692;11.958;2022-09-01T09:37:22;1.30;;;0.88;;
12990;SDS011;6560;57.692;11.958;2022-09-01T09:40:01;0.68;;;0.50;;
12990;SDS011;6560;57.692;11.958;2022-09-01T09:42:27;0.57;;;0.52;;
12990;SDS011;6560;57.692;11.958;2022-09-01T09:44:53;2.30;;;0.90;;
12990;SDS011;6560;57.692;11.958;2022-09-01T09:47:33;0.60;;;0.60;;
12990;SDS011;6560;57.692;11.958;2022-09-01T09:52:36;0.70;;;0.50;;
12990;SDS011;6560;57.692;11.958;2022-09-01T09:55:03;0.82;;;0.82;;
12990;SDS011;6560;57.692;11.958;2022-09-01T09:57:29;0.75;;;0.50;;
12990;SDS011;6560;57.692;11.958;2022-09-01T10:00:00;1.92;;;0.60;;
12990;SDS011;6560;57.692;11.958;2022-09-01T10:04:56;1.52;;;0.40;;
12990;SDS011;6560;57.692;11.958;2022-09-01T10:07:29;1.45;;;0.57;;
12990;SDS011;6560;57.692;11.958;2022-09-01T10:09:56;0.70;;;0.50;;
12990;SDS011;6560;57.692;11.958;2022-09-01T10:12:22;0.55;;;0.55;;
12990;SDS011;6560;57.692;11.958;2022-09-01T10:14:52;1.33;;;0.70;;
12990;SDS011;6560;57.692;11.958;2022-09-01T10:17:27;0.80;;;0.70;;
12990;SDS011;6560;57.692;11.958;2022-09-01T10:19:56;1.98;;;0.60;;
12990;SDS011;6560;57.692;11.958;2022-09-01T10:22:23;1.73;;;0.90;;
12990;SDS011;6560;57.692;11.958;2022-09-01T10:24:49;1.42;;;0.93;;
12990;SDS011;6560;57.692;11.958;2022-09-01T10:27:17;2.05;;;0.85;;
12990;SDS011;6560;57.692;11.958;2022-09-01T10:29:44;1.13;;;0.77;;
12990;SDS011;6560;57.692;11.958;2022-09-01T10:32:12;1.42;;;0.50;;
12990;SDS011;6560;57.692;11.958;2022-09-01T10:34:39;1.15;;;0.50;;
12990;SDS011;6560;57.692;11.958;2022-09-01T10:37:05;0.65;;;0.60;;
12990;SDS011;6560;57.692;11.958;2022-09-01T10:39:31;2.10;;;0.57;;
12990;SDS011;6560;57.692;11.958;2022-09-01T10:41:57;2.03;;;0.73;;
12990;SDS011;6560;57.692;11.958;2022-09-01T10:47:00;0.50;;;0.50;;
12990;SDS011;6560;57.692;11.958;2022-09-01T10:51:51;0.50;;;0.50;;
12990;SDS011;6560;57.692;11.958;2022-09-01T10:59:41;1.52;;;0.70;;
12990;SDS011;6560;57.692;11.958;2022-09-01T11:11:50;1.60;;;0.65;;
12990;SDS011;6560;57.692;11.958;2022-09-01T11:14:21;2.10;;;0.82;;
12990;SDS011;6560;57.692;11.958;2022-09-01T11:22:08;2.35;;;0.90;;
12990;SDS011;6560;57.692;11.958;2022-09-01T11:27:06;0.75;;;0.60;;
12990;SDS011;6560;57.692;11.958;2022-09-01T11:29:52;1.70;;;0.77;;
12990;SDS011;6560;57.692;11.958;2022-09-01T11:32:18;7.03;;;1.00;;
12990;SDS011;6560;57.692;11.958;2022-09-01T11:34:45;0.82;;;0.70;;
12990;SDS011;6560;57.692;11.958;2022-09-01T11:37:14;1.27;;;0.57;;
12990;SDS011;6560;57.692;11.958;2022-09-01T11:39:50;1.77;;;1.20;;
12990;SDS011;6560;57.692;11.958;2022-09-01T11:45:12;0.60;;;0.60;;
12990;SDS011;6560;57.692;11.958;2022-09-01T11:47:39;0.77;;;0.60;;
12990;SDS011;6560;57.692;11.958;2022-09-01T11:50:07;1.08;;;0.68;;
12990;SDS011;6560;57.692;11.958;2022-09-01T11:52:41;1.60;;;0.85;;
12990;SDS011;6560;57.692;11.958;2022-09-01T11:55:07;5.95;;;1.17;;
12990;SDS011;6560;57.692;11.958;2022-09-01T11:57:33;0.73;;;0.70;;
12990;SDS011;6560;57.692;11.958;2022-09-01T12:00:00;2.28;;;0.65;;
12990;SDS011;6560;57.692;11.958;2022-09-01T12:02:27;0.52;;;0.52;;
12990;SDS011;6560;57.692;11.958;2022-09-01T12:04:57;1.30;;;0.50;;
12990;SDS011;6560;57.692;11.958;2022-09-01T12:07:27;1.83;;;0.70;;
12990;SDS011;6560;57.692;11.958;2022-09-01T12:09:54;1.38;;;1.10;;
12990;SDS011;6560;57.692;11.958;2022-09-01T12:12:30;1.27;;;0.85;;
12990;SDS011;6560;57.692;11.958;2022-09-01T12:14:57;1.45;;;0.77;;
12990;SDS011;6560;57.692;11.958;2022-09-01T12:17:22;0.95;;;0.70;;
12990;SDS011;6560;57.692;11.958;2022-09-01T12:19:48;2.35;;;1.10;;
12990;SDS011;6560;57.692;11.958;2022-09-01T12:22:14;6.78;;;0.82;;
12990;SDS011;6560;57.692;11.958;2022-09-01T12:24:43;0.80;;;0.80;;
12990;SDS011;6560;57.692;11.958;2022-09-01T12:27:09;1.33;;;0.90;;
12990;SDS011;6560;57.692;11.958;2022-09-01T12:29:35;1.63;;;1.02;;
12990;SDS011;6560;57.692;11.958;2022-09-01T12:32:01;2.95;;;0.90;;
12990;SDS011;6560;57.692;11.958;2022-09-01T12:39:34;1.48;;;0.88;;
12990;SDS011;6560;57.692;11.958;2022-09-01T12:42:04;3.13;;;0.63;;
12990;SDS011;6560;57.692;11.958;2022-09-01T12:44:41;2.10;;;0.65;;
12990;SDS011;6560;57.692;11.958;2022-09-01T12:47:08;0.75;;;0.75;;
12990;SDS011;6560;57.692;11.958;2022-09-01T12:49:43;1.13;;;0.70;;
12990;SDS011;6560;57.692;11.958;2022-09-01T13:00:05;4.00;;;1.20;;
12990;SDS011;6560;57.692;11.958;2022-09-01T13:02:33;0.77;;;0.77;;
12990;SDS011;6560;57.692;11.958;2022-09-01T13:05:16;3.05;;;0.88;;
12990;SDS011;6560;57.692;11.958;2022-09-01T13:07:42;0.60;;;0.60;;
12990;SDS011;6560;57.692;11.958;2022-09-01T13:10:07;0.93;;;0.65;;
12990;SDS011;6560;57.692;11.958;2022-09-01T13:12:32;1.88;;;1.02;;
12990;SDS011;6560;57.692;11.958;2022-09-01T13:14:58;0.70;;;0.70;;
12990;SDS011;6560;57.692;11.958;2022-09-01T13:17:23;2.80;;;1.17;;
12990;SDS011;6560;57.692;11.958;2022-09-01T13:19:48;2.40;;;0.60;;
12990;SDS011;6560;57.692;11.958;2022-09-01T13:22:14;0.82;;;0.82;;
12990;SDS011;6560;57.692;11.958;2022-09-01T13:24:39;6.95;;;1.00;;
12990;SDS011;6560;57.692;11.958;2022-09-01T13:27:04;1.75;;;0.60;;
12990;SDS011;6560;57.692;11.958;2022-09-01T13:29:29;3.28;;;0.80;;
12990;SDS011;6560;57.692;11.958;2022-09-01T13:31:55;2.17;;;0.73;;
12990;SDS011;6560;57.692;11.958;2022-09-01T13:34:21;1.50;;;0.80;;
12990;SDS011;6560;57.692;11.958;2022-09-01T13:36:46;1.48;;;0.60;;
12990;SDS011;6560;57.692;11.958;2022-09-01T13:39:12;3.25;;;0.98;;
12990;SDS011;6560;57.692;11.958;2022-09-01T13:41:37;0.77;;;0.60;;
12990;SDS011;6560;57.692;11.958;2022-09-01T13:44:03;3.15;;;0.90;;
12990;SDS011;6560;57.692;11.958;2022-09-01T13:46:28;0.60;;;0.60;;
12990;SDS011;6560;57.692;11.958;2022-09-01T13:48:54;0.73;;;0.65;;
12990;SDS011;6560;57.692;11.958;2022-09-01T13:51:25;1.75;;;0.60;;
12990;SDS011;6560;57.692;11.958;2022-09-01T13:53:51;1.70;;;1.00;;
12990;SDS011;6560;57.692;11.958;2022-09-01T13:56:16;1.10;;;0.85;;
12990;SDS011;6560;57.692;11.958;2022-09-01T13:58:42;2.45;;;1.00;;
12990;SDS011;6560;57.692;11.958;2022-09-01T14:01:07;0.98;;;0.70;;
12990;SDS011;6560;57.692;11.958;2022-09-01T14:03:35;1.35;;;0.98;;
12990;SDS011;6560;57.692;11.958;2022-09-01T14:06:00;0.80;;;0.80;;
12990;SDS011;6560;57.692;11.958;2022-09-01T14:08:26;3.80;;;0.80;;
12990;SDS011;6560;57.692;11.958;2022-09-01T14:10:52;2.05;;;0.70;;
12990;SDS011;6560;57.692;11.958;2022-09-01T14:13:20;1.98;;;0.90;;
12990;SDS011;6560;57.692;11.958;2022-09-01T14:15:46;3.85;;;1.17;;
12990;SDS011;6560;57.692;11.958;2022-09-01T14:18:12;0.70;;;0.68;;
12990;SDS011;6560;57.692;11.958;2022-09-01T14:20:39;1.85;;;0.95;;
12990;SDS011;6560;57.692;11.958;2022-09-01T14:23:07;1.05;;;0.90;;
12990;SDS011;6560;57.692;11.958;2022-09-01T14:25:33;1.13;;;0.77;;
12990;SDS011;6560;57.692;11.958;2022-09-01T14:27:58;1.15;;;0.60;;
12990;SDS011;6560;57.692;11.958;2022-09-01T14:30:26;1.77;;;0.85;;
12990;SDS011;6560;57.692;11.958;2022-09-01T14:32:51;3.08;;;0.75;;
12990;SDS011;6560;57.692;11.958;2022-09-01T14:35:18;2.78;;;0.80;;
12990;SDS011;6560;57.692;11.958;2022-09-01T14:37:43;0.50;;;0.50;;
12990;SDS011;6560;57.692;11.958;2022-09-01T14:40:10;1.48;;;0.52;;
12990;SDS011;6560;57.692;11.958;2022-09-01T14:42:39;1.50;;;0.70;;
12990;SDS011;6560;57.692;11.958;2022-09-01T14:45:05;1.17;;;0.82;;
12990;SDS011;6560;57.692;11.958;2022-09-01T14:47:31;0.60;;;0.60;;
12990;SDS011;6560;57.692;11.958;2022-09-01T14:49:56;0.73;;;0.70;;
12990;SDS011;6560;57.692;11.958;2022-09-01T14:52:22;0.80;;;0.80;;
12990;SDS011;6560;57.692;11.958;2022-09-01T14:54:47;1.20;;;0.90;;
12990;SDS011;6560;57.692;11.958;2022-09-01T14:57:13;2.22;;;0.93;;
12990;SDS011;6560;57.692;11.958;2022-09-01T14:59:39;1.20;;;0.82;;
12990;SDS011;6560;57.692;11.958;2022-09-01T15:02:06;0.90;;;0.80;;
12990;SDS011;6560;57.692;11.958;2022-09-01T15:04:31;0.60;;;0.60;;
12990;SDS011;6560;57.692;11.958;2022-09-01T15:06:58;1.67;;;0.70;;
12990;SDS011;6560;57.692;11.958;2022-09-01T15:09:23;1.38;;;0.95;;
12990;SDS011;6560;57.692;11.958;2022-09-01T15:11:49;1.30;;;0.95;;
12990;SDS011;6560;57.692;11.958;2022-09-01T15:14:14;0.90;;;0.90;;
12990;SDS011;6560;57.692;11.958;2022-09-01T15:16:40;0.88;;;0.82;;
12990;SDS011;6560;57.692;11.958;2022-09-01T15:19:06;1.17;;;0.85;;
12990;SDS011;6560;57.692;11.958;2022-09-01T15:21:32;0.93;;;0.80;;
12990;SDS011;6560;57.692;11.958;2022-09-01T15:23:58;1.10;;;1.00;;
12990;SDS011;6560;57.692;11.958;2022-09-01T15:26:24;0.60;;;0.60;;
12990;SDS011;6560;57.692;11.958;2022-09-01T15:28:50;1.40;;;0.93;;
12990;SDS011;6560;57.692;11.958;2022-09-01T15:31:16;1.08;;;1.05;;
12990;SDS011;6560;57.692;11.958;2022-09-01T15:33:42;1.33;;;1.00;;
12990;SDS011;6560;57.692;11.958;2022-09-01T15:36:08;0.60;;;0.60;;
12990;SDS011;6560;57.692;11.958;2022-09-01T15:38:37;0.82;;;0.75;;
12990;SDS011;6560;57.692;11.958;2022-09-01T15:41:03;1.35;;;0.80;;
12990;SDS011;6560;57.692;11.958;2022-09-01T15:43:28;1.73;;;1.00;;
12990;SDS011;6560;57.692;11.958;2022-09-01T15:45:55;2.45;;;0.70;;
12990;SDS011;6560;57.692;11.958;2022-09-01T15:48:22;1.48;;;0.90;;
12990;SDS011;6560;57.692;11.958;2022-09-01T15:50:47;0.82;;;0.80;;
12990;SDS011;6560;57.692;11.958;2022-09-01T15:53:12;2.47;;;1.23;;